sensor_id;sensor_type;location;lat;lon;timestamp;P1;durP1;ratioP1;P2;durP2;ratioP2
21878;SDS011;27908;42.708;23.278;2023-01-06T00:01:29;15.82;;;6.40;;
21878;SDS011;27908;42.708;23.278;2023-01-06T00:03:56;13.10;;;6.10;;
21878;SDS011;27908;42.708;23.278;2023-01-06T00:06:23;14.57;;;6.55;;
21878;SDS011;27908;42.708;23.278;2023-01-06T00:08:55;11.27;;;5.13;;
21878;SDS011;27908;42.708;23.278;2023-01-06T00:11:22;14.25;;;5.88;;
21878;SDS011;27908;42.708;23.278;2023-01-06T00:13:48;12.77;;;5.85;;
21878;SDS011;27908;42.708;23.278;2023-01-06T00:16:15;12.27;;;5.67;;
21878;SDS011;27908;42.708;23.278;2023-01-06T00:18:42;16.27;;;5.47;;
21878;SDS011;27908;42.708;23.278;2023-01-06T00:21:08;13.87;;;5.53;;
21878;SDS011;27908;42.708;23.278;2023-01-06T00:23:35;11.93;;;5.78;;
21878;SDS011;27908;42.708;23.278;2023-01-06T00:26:01;14.02;;;5.65;;
21878;SDS011;27908;42.708;23.278;2023-01-06T00:28:28;14.15;;;5.40;;
21878;SDS011;27908;42.708;23.278;2023-01-06T00:30:53;14.37;;;5.70;;
21878;SDS011;27908;42.708;23.278;2023-01-06T00:33:19;14.97;;;5.73;;
21878;SDS011;27908;42.708;23.278;2023-01-06T00:35:44;13.35;;;5.30;;
21878;SDS011;27908;42.708;23.278;2023-01-06T00:38:10;12.40;;;5.50;;
21878;SDS011;27908;42.708;23.278;2023-01-06T00:40:35;15.87;;;6.00;;
21878;SDS011;27908;42.708;23.278;2023-01-06T00:43:01;15.57;;;5.80;;
21878;SDS011;27908;42.708;23.278;2023-01-06T00:45:28;14.95;;;5.80;;
21878;SDS011;27908;42.708;23.278;2023-01-06T00:47:54;13.13;;;5.17;;
21878;SDS011;27908;42.708;23.278;2023-01-06T00:50:19;13.37;;;4.93;;
21878;SDS011;27908;42.708;23.278;2023-01-06T00:52:46;14.60;;;5.20;;
21878;SDS011;27908;42.708;23.278;2023-01-06T00:55:12;11.68;;;5.18;;
21878;SDS011;27908;42.708;23.278;2023-01-06T00:57:38;11.37;;;5.10;;
21878;SDS011;27908;42.708;23.278;2023-01-06T01:00:05;13.40;;;4.97;;
21878;SDS011;27908;42.708;23.278;2023-01-06T01:02:31;12.88;;;4.55;;
21878;SDS011;27908;42.708;23.278;2023-01-06T01:04:57;13.53;;;4.60;;
21878;SDS011;27908;42.708;23.278;2023-01-06T01:07:22;13.93;;;4.67;;
21878;SDS011;27908;42.708;23.278;2023-01-06T01:09:48;10.13;;;4.25;;
21878;SDS011;27908;42.708;23.278;2023-01-06T01:12:13;12.00;;;4.17;;
21878;SDS011;27908;42.708;23.278;2023-01-06T01:14:40;12.10;;;4.30;;
21878;SDS011;27908;42.708;23.278;2023-01-06T01:17:06;11.27;;;3.95;;
21878;SDS011;27908;42.708;23.278;2023-01-06T01:19:33;13.40;;;4.43;;
21878;SDS011;27908;42.708;23.278;2023-01-06T01:21:59;14.13;;;4.30;;
21878;SDS011;27908;42.708;23.278;2023-01-06T01:24:25;10.20;;;4.28;;
21878;SDS011;27908;42.708;23.278;2023-01-06T01:26:50;13.67;;;4.10;;
21878;SDS011;27908;42.708;23.278;2023-01-06T01:29:16;11.63;;;4.07;;
21878;SDS011;27908;42.708;23.278;2023-01-06T01:31:43;9.60;;;4.60;;
21878;SDS011;27908;42.708;23.278;2023-01-06T01:34:09;9.98;;;4.40;;
21878;SDS011;27908;42.708;23.278;2023-01-06T01:36:36;11.55;;;4.47;;
21878;SDS011;27908;42.708;23.278;2023-01-06T01:39:01;11.27;;;4.73;;
21878;SDS011;27908;42.708;23.278;2023-01-06T01:41:27;10.70;;;3.70;;
21878;SDS011;27908;42.708;23.278;2023-01-06T01:43:55;10.23;;;4.55;;
21878;SDS011;27908;42.708;23.278;2023-01-06T01:46:38;9.50;;;3.87;;
21878;SDS011;27908;42.708;23.278;2023-01-06T01:49:13;10.63;;;4.13;;
21878;SDS011;27908;42.708;23.278;2023-01-06T01:51:44;8.85;;;3.33;;
21878;SDS011;27908;42.708;23.278;2023-01-06T01:54:15;8.60;;;3.63;;
21878;SDS011;27908;42.708;23.278;2023-01-06T01:56:46;9.52;;;3.40;;
21878;SDS011;27908;42.708;23.278;2023-01-06T01:59:20;8.83;;;3.30;;
21878;SDS011;27908;42.708;23.278;2023-01-06T02:01:50;8.88;;;3.55;;
21878;SDS011;27908;42.708;23.278;2023-01-06T02:04:16;8.50;;;3.13;;
21878;SDS011;27908;42.708;23.278;2023-01-06T02:06:44;8.48;;;3.25;;
21878;SDS011;27908;42.708;23.278;2023-01-06T02:12:01;8.95;;;3.40;;
21878;SDS011;27908;42.708;23.278;2023-01-06T02:14:27;9.57;;;3.63;;
21878;SDS011;27908;42.708;23.278;2023-01-06T02:25:17;8.07;;;3.30;;
21878;SDS011;27908;42.708;23.278;2023-01-06T02:34:08;8.20;;;3.20;;
21878;SDS011;27908;42.708;23.278;2023-01-06T02:39:39;7.93;;;3.00;;
21878;SDS011;27908;42.708;23.278;2023-01-06T02:42:27;7.60;;;3.10;;
21878;SDS011;27908;42.708;23.278;2023-01-06T02:45:22;10.00;;;3.40;;
21878;SDS011;27908;42.708;23.278;2023-01-06T02:48:18;8.07;;;3.03;;
21878;SDS011;27908;42.708;23.278;2023-01-06T02:53:47;8.40;;;3.40;;
21878;SDS011;27908;42.708;23.278;2023-01-06T02:56:23;7.57;;;3.15;;
21878;SDS011;27908;42.708;23.278;2023-01-06T02:58:58;9.15;;;3.15;;
21878;SDS011;27908;42.708;23.278;2023-01-06T03:01:30;8.40;;;3.47;;
21878;SDS011;27908;42.708;23.278;2023-01-06T03:04:00;9.57;;;3.57;;
21878;SDS011;27908;42.708;23.278;2023-01-06T03:06:30;8.80;;;3.80;;
21878;SDS011;27908;42.708;23.278;2023-01-06T03:08:58;8.95;;;3.42;;
21878;SDS011;27908;42.708;23.278;2023-01-06T03:11:25;8.90;;;3.90;;
21878;SDS011;27908;42.708;23.278;2023-01-06T03:13:58;8.73;;;3.55;;
21878;SDS011;27908;42.708;23.278;2023-01-06T03:16:33;9.93;;;3.60;;
21878;SDS011;27908;42.708;23.278;2023-01-06T03:18:58;7.93;;;3.03;;
21878;SDS011;27908;42.708;23.278;2023-01-06T03:21:25;8.57;;;3.63;;
21878;SDS011;27908;42.708;23.278;2023-01-06T03:23:55;9.90;;;3.53;;
21878;SDS011;27908;42.708;23.278;2023-01-06T03:26:23;13.45;;;3.80;;
21878;SDS011;27908;42.708;23.278;2023-01-06T03:28:49;10.17;;;3.33;;
21878;SDS011;27908;42.708;23.278;2023-01-06T03:40:15;10.85;;;3.53;;
21878;SDS011;27908;42.708;23.278;2023-01-06T03:42:54;10.35;;;3.30;;
21878;SDS011;27908;42.708;23.278;2023-01-06T03:48:22;8.00;;;3.00;;
21878;SDS011;27908;42.708;23.278;2023-01-06T03:54:09;8.98;;;3.67;;
21878;SDS011;27908;42.708;23.278;2023-01-06T03:56:44;9.00;;;3.50;;
21878;SDS011;27908;42.708;23.278;2023-01-06T03:59:14;11.48;;;4.28;;
21878;SDS011;27908;42.708;23.278;2023-01-06T04:01:43;9.27;;;3.60;;
21878;SDS011;27908;42.708;23.278;2023-01-06T04:04:09;9.07;;;3.80;;
21878;SDS011;27908;42.708;23.278;2023-01-06T04:06:35;8.75;;;3.40;;
21878;SDS011;27908;42.708;23.278;2023-01-06T04:09:00;9.57;;;3.77;;
21878;SDS011;27908;42.708;23.278;2023-01-06T04:11:26;10.07;;;3.53;;
21878;SDS011;27908;42.708;23.278;2023-01-06T04:14:10;8.70;;;3.42;;
21878;SDS011;27908;42.708;23.278;2023-01-06T04:16:35;9.80;;;3.30;;
21878;SDS011;27908;42.708;23.278;2023-01-06T04:19:01;7.20;;;3.00;;
21878;SDS011;27908;42.708;23.278;2023-01-06T04:21:26;9.23;;;3.30;;
21878;SDS011;27908;42.708;23.278;2023-01-06T04:23:52;10.03;;;3.67;;
21878;SDS011;27908;42.708;23.278;2023-01-06T04:26:17;9.83;;;3.83;;
21878;SDS011;27908;42.708;23.278;2023-01-06T04:28:43;8.10;;;3.67;;
21878;SDS011;27908;42.708;23.278;2023-01-06T04:31:08;7.57;;;3.17;;
21878;SDS011;27908;42.708;23.278;2023-01-06T04:33:34;8.82;;;3.05;;
21878;SDS011;27908;42.708;23.278;2023-01-06T04:35:59;8.27;;;3.00;;
21878;SDS011;27908;42.708;23.278;2023-01-06T04:38:25;8.33;;;3.10;;
21878;SDS011;27908;42.708;23.278;2023-01-06T04:40:50;9.63;;;3.38;;
21878;SDS011;27908;42.708;23.278;2023-01-06T04:43:16;8.37;;;2.73;;
21878;SDS011;27908;42.708;23.278;2023-01-06T04:45:42;7.95;;;2.97;;
21878;SDS011;27908;42.708;23.278;2023-01-06T04:48:08;7.13;;;2.93;;
21878;SDS011;27908;42.708;23.278;2023-01-06T04:50:34;7.72;;;2.70;;
21878;SDS011;27908;42.708;23.278;2023-01-06T04:53:00;6.72;;;2.63;;
21878;SDS011;27908;42.708;23.278;2023-01-06T04:55:25;6.93;;;2.40;;
21878;SDS011;27908;42.708;23.278;2023-01-06T04:57:51;7.87;;;2.93;;
21878;SDS011;27908;42.708;23.278;2023-01-06T05:00:17;6.60;;;2.45;;
21878;SDS011;27908;42.708;23.278;2023-01-06T05:02:43;7.28;;;2.72;;
21878;SDS011;27908;42.708;23.278;2023-01-06T05:05:09;6.83;;;2.53;;
21878;SDS011;27908;42.708;23.278;2023-01-06T05:07:35;9.60;;;2.75;;
21878;SDS011;27908;42.708;23.278;2023-01-06T05:10:00;10.70;;;2.53;;
21878;SDS011;27908;42.708;23.278;2023-01-06T05:12:26;9.63;;;3.53;;
21878;SDS011;27908;42.708;23.278;2023-01-06T05:14:51;9.27;;;3.27;;
21878;SDS011;27908;42.708;23.278;2023-01-06T05:17:17;8.47;;;3.20;;
21878;SDS011;27908;42.708;23.278;2023-01-06T05:19:42;8.57;;;3.07;;
21878;SDS011;27908;42.708;23.278;2023-01-06T05:22:09;9.00;;;3.13;;
21878;SDS011;27908;42.708;23.278;2023-01-06T05:24:35;7.50;;;2.80;;
21878;SDS011;27908;42.708;23.278;2023-01-06T05:27:01;7.23;;;2.57;;
21878;SDS011;27908;42.708;23.278;2023-01-06T05:29:26;8.88;;;2.60;;
21878;SDS011;27908;42.708;23.278;2023-01-06T05:31:52;10.20;;;3.20;;
21878;SDS011;27908;42.708;23.278;2023-01-06T05:34:17;8.93;;;3.07;;
21878;SDS011;27908;42.708;23.278;2023-01-06T05:36:42;7.33;;;2.73;;
21878;SDS011;27908;42.708;23.278;2023-01-06T05:39:08;9.48;;;3.00;;
21878;SDS011;27908;42.708;23.278;2023-01-06T05:41:33;7.10;;;2.90;;
21878;SDS011;27908;42.708;23.278;2023-01-06T05:43:59;8.20;;;2.80;;
21878;SDS011;27908;42.708;23.278;2023-01-06T05:46:24;8.53;;;2.80;;
21878;SDS011;27908;42.708;23.278;2023-01-06T05:48:49;7.73;;;3.10;;
21878;SDS011;27908;42.708;23.278;2023-01-06T05:51:15;7.63;;;2.60;;
21878;SDS011;27908;42.708;23.278;2023-01-06T05:53:42;7.18;;;2.90;;
21878;SDS011;27908;42.708;23.278;2023-01-06T05:56:10;7.00;;;2.53;;
21878;SDS011;27908;42.708;23.278;2023-01-06T05:58:38;7.25;;;2.40;;
21878;SDS011;27908;42.708;23.278;2023-01-06T06:01:13;7.22;;;2.55;;
21878;SDS011;27908;42.708;23.278;2023-01-06T06:03:43;7.88;;;2.40;;
21878;SDS011;27908;42.708;23.278;2023-01-06T06:06:08;7.47;;;2.43;;
21878;SDS011;27908;42.708;23.278;2023-01-06T06:08:33;6.40;;;2.23;;
21878;SDS011;27908;42.708;23.278;2023-01-06T06:11:06;7.57;;;2.80;;
21878;SDS011;27908;42.708;23.278;2023-01-06T06:13:33;7.90;;;2.65;;
21878;SDS011;27908;42.708;23.278;2023-01-06T06:16:17;8.07;;;3.20;;
21878;SDS011;27908;42.708;23.278;2023-01-06T06:18:46;9.33;;;3.07;;
21878;SDS011;27908;42.708;23.278;2023-01-06T06:21:17;8.68;;;3.47;;
21878;SDS011;27908;42.708;23.278;2023-01-06T06:23:45;10.05;;;4.00;;
21878;SDS011;27908;42.708;23.278;2023-01-06T06:26:11;8.67;;;2.80;;
21878;SDS011;27908;42.708;23.278;2023-01-06T06:28:37;8.07;;;2.92;;
21878;SDS011;27908;42.708;23.278;2023-01-06T06:33:51;7.30;;;2.77;;
21878;SDS011;27908;42.708;23.278;2023-01-06T06:36:18;8.15;;;2.90;;
21878;SDS011;27908;42.708;23.278;2023-01-06T06:38:44;7.95;;;3.13;;
21878;SDS011;27908;42.708;23.278;2023-01-06T06:41:11;8.30;;;2.80;;
21878;SDS011;27908;42.708;23.278;2023-01-06T06:43:36;6.60;;;2.38;;
21878;SDS011;27908;42.708;23.278;2023-01-06T06:46:02;8.43;;;2.70;;
21878;SDS011;27908;42.708;23.278;2023-01-06T06:48:28;7.00;;;2.20;;
21878;SDS011;27908;42.708;23.278;2023-01-06T06:51:07;6.87;;;2.80;;
21878;SDS011;27908;42.708;23.278;2023-01-06T06:53:34;10.88;;;2.70;;
21878;SDS011;27908;42.708;23.278;2023-01-06T06:56:01;6.97;;;2.50;;
21878;SDS011;27908;42.708;23.278;2023-01-06T06:58:28;36.45;;;9.90;;
21878;SDS011;27908;42.708;23.278;2023-01-06T07:00:54;16.77;;;5.57;;
21878;SDS011;27908;42.708;23.278;2023-01-06T07:03:19;12.53;;;3.90;;
21878;SDS011;27908;42.708;23.278;2023-01-06T07:05:45;6.47;;;2.30;;
21878;SDS011;27908;42.708;23.278;2023-01-06T07:08:12;8.43;;;2.88;;
21878;SDS011;27908;42.708;23.278;2023-01-06T07:10:38;7.07;;;2.17;;
21878;SDS011;27908;42.708;23.278;2023-01-06T07:13:04;6.73;;;2.40;;
21878;SDS011;27908;42.708;23.278;2023-01-06T07:15:30;7.72;;;2.83;;
21878;SDS011;27908;42.708;23.278;2023-01-06T07:18:02;6.18;;;2.17;;
21878;SDS011;27908;42.708;23.278;2023-01-06T07:20:29;7.87;;;2.30;;
21878;SDS011;27908;42.708;23.278;2023-01-06T07:22:56;8.65;;;2.55;;
21878;SDS011;27908;42.708;23.278;2023-01-06T07:25:22;7.43;;;2.20;;
21878;SDS011;27908;42.708;23.278;2023-01-06T07:27:54;9.35;;;2.45;;
21878;SDS011;27908;42.708;23.278;2023-01-06T07:30:21;7.28;;;2.33;;
21878;SDS011;27908;42.708;23.278;2023-01-06T07:32:47;7.63;;;2.33;;
21878;SDS011;27908;42.708;23.278;2023-01-06T07:35:12;7.03;;;2.27;;
21878;SDS011;27908;42.708;23.278;2023-01-06T07:37:38;6.97;;;2.43;;
21878;SDS011;27908;42.708;23.278;2023-01-06T07:40:03;6.57;;;2.10;;
21878;SDS011;27908;42.708;23.278;2023-01-06T07:42:29;6.37;;;1.67;;
21878;SDS011;27908;42.708;23.278;2023-01-06T07:44:55;6.93;;;2.30;;
21878;SDS011;27908;42.708;23.278;2023-01-06T07:47:20;5.73;;;1.93;;
21878;SDS011;27908;42.708;23.278;2023-01-06T07:49:45;7.57;;;2.37;;
21878;SDS011;27908;42.708;23.278;2023-01-06T07:52:11;8.70;;;2.00;;
21878;SDS011;27908;42.708;23.278;2023-01-06T07:54:36;7.70;;;2.65;;
21878;SDS011;27908;42.708;23.278;2023-01-06T07:57:02;5.93;;;2.20;;
21878;SDS011;27908;42.708;23.278;2023-01-06T07:59:27;6.43;;;1.80;;
21878;SDS011;27908;42.708;23.278;2023-01-06T08:01:53;6.00;;;2.20;;
21878;SDS011;27908;42.708;23.278;2023-01-06T08:04:18;5.90;;;1.98;;
21878;SDS011;27908;42.708;23.278;2023-01-06T08:06:44;7.23;;;2.10;;
21878;SDS011;27908;42.708;23.278;2023-01-06T08:09:09;5.50;;;2.37;;
21878;SDS011;27908;42.708;23.278;2023-01-06T08:11:34;5.80;;;2.00;;
21878;SDS011;27908;42.708;23.278;2023-01-06T08:14:00;6.32;;;2.20;;
21878;SDS011;27908;42.708;23.278;2023-01-06T08:16:25;5.33;;;1.70;;
21878;SDS011;27908;42.708;23.278;2023-01-06T08:18:51;5.00;;;1.57;;
21878;SDS011;27908;42.708;23.278;2023-01-06T08:21:16;9.63;;;1.90;;
21878;SDS011;27908;42.708;23.278;2023-01-06T08:23:42;5.38;;;1.85;;
21878;SDS011;27908;42.708;23.278;2023-01-06T08:26:09;5.90;;;1.90;;
21878;SDS011;27908;42.708;23.278;2023-01-06T08:28:37;8.00;;;1.90;;
21878;SDS011;27908;42.708;23.278;2023-01-06T08:31:03;5.33;;;1.50;;
21878;SDS011;27908;42.708;23.278;2023-01-06T08:33:33;7.00;;;1.90;;
21878;SDS011;27908;42.708;23.278;2023-01-06T08:35:59;7.20;;;2.00;;
21878;SDS011;27908;42.708;23.278;2023-01-06T08:38:25;6.85;;;1.80;;
21878;SDS011;27908;42.708;23.278;2023-01-06T08:40:52;5.68;;;1.90;;
21878;SDS011;27908;42.708;23.278;2023-01-06T08:43:18;9.05;;;2.00;;
21878;SDS011;27908;42.708;23.278;2023-01-06T08:45:44;6.67;;;2.23;;
21878;SDS011;27908;42.708;23.278;2023-01-06T08:48:09;10.40;;;1.97;;
21878;SDS011;27908;42.708;23.278;2023-01-06T08:50:36;6.65;;;2.00;;
21878;SDS011;27908;42.708;23.278;2023-01-06T08:53:03;5.20;;;1.90;;
21878;SDS011;27908;42.708;23.278;2023-01-06T08:55:29;6.80;;;1.63;;
21878;SDS011;27908;42.708;23.278;2023-01-06T08:57:54;5.13;;;1.50;;
21878;SDS011;27908;42.708;23.278;2023-01-06T09:00:20;5.22;;;1.63;;
21878;SDS011;27908;42.708;23.278;2023-01-06T09:02:45;9.23;;;1.70;;
21878;SDS011;27908;42.708;23.278;2023-01-06T09:05:10;4.17;;;1.27;;
21878;SDS011;27908;42.708;23.278;2023-01-06T09:07:36;4.17;;;1.33;;
21878;SDS011;27908;42.708;23.278;2023-01-06T09:10:01;5.97;;;1.73;;
21878;SDS011;27908;42.708;23.278;2023-01-06T09:12:27;5.97;;;1.70;;
21878;SDS011;27908;42.708;23.278;2023-01-06T09:14:53;5.47;;;1.70;;
21878;SDS011;27908;42.708;23.278;2023-01-06T09:17:18;4.43;;;1.48;;
21878;SDS011;27908;42.708;23.278;2023-01-06T09:19:44;5.07;;;1.33;;
21878;SDS011;27908;42.708;23.278;2023-01-06T09:22:09;5.97;;;1.50;;
21878;SDS011;27908;42.708;23.278;2023-01-06T09:24:34;7.03;;;1.83;;
21878;SDS011;27908;42.708;23.278;2023-01-06T09:27:00;5.83;;;1.60;;
21878;SDS011;27908;42.708;23.278;2023-01-06T09:29:25;5.25;;;1.30;;
21878;SDS011;27908;42.708;23.278;2023-01-06T09:31:51;4.93;;;1.60;;
21878;SDS011;27908;42.708;23.278;2023-01-06T09:34:16;6.73;;;1.93;;
21878;SDS011;27908;42.708;23.278;2023-01-06T09:36:41;6.60;;;1.57;;
21878;SDS011;27908;42.708;23.278;2023-01-06T09:39:07;5.00;;;1.40;;
21878;SDS011;27908;42.708;23.278;2023-01-06T09:46:40;6.17;;;1.90;;
21878;SDS011;27908;42.708;23.278;2023-01-06T09:52:00;5.15;;;1.50;;
21878;SDS011;27908;42.708;23.278;2023-01-06T09:54:35;5.88;;;1.33;;
21878;SDS011;27908;42.708;23.278;2023-01-06T09:57:20;4.80;;;1.55;;
21878;SDS011;27908;42.708;23.278;2023-01-06T09:59:53;4.70;;;1.30;;
21878;SDS011;27908;42.708;23.278;2023-01-06T10:02:40;5.93;;;1.60;;
21878;SDS011;27908;42.708;23.278;2023-01-06T10:05:21;6.38;;;2.35;;
21878;SDS011;27908;42.708;23.278;2023-01-06T10:07:58;5.55;;;1.50;;
21878;SDS011;27908;42.708;23.278;2023-01-06T10:15:42;6.18;;;2.08;;
21878;SDS011;27908;42.708;23.278;2023-01-06T10:24:00;6.30;;;1.50;;
21878;SDS011;27908;42.708;23.278;2023-01-06T10:26:40;7.65;;;1.73;;
21878;SDS011;27908;42.708;23.278;2023-01-06T10:29:12;5.72;;;1.80;;
21878;SDS011;27908;42.708;23.278;2023-01-06T10:31:42;5.27;;;1.40;;
21878;SDS011;27908;42.708;23.278;2023-01-06T10:34:19;4.68;;;1.33;;
21878;SDS011;27908;42.708;23.278;2023-01-06T10:36:47;7.18;;;1.38;;
21878;SDS011;27908;42.708;23.278;2023-01-06T10:39:19;5.80;;;1.65;;
21878;SDS011;27908;42.708;23.278;2023-01-06T10:44:20;4.93;;;1.40;;
21878;SDS011;27908;42.708;23.278;2023-01-06T10:46:46;5.68;;;1.80;;
21878;SDS011;27908;42.708;23.278;2023-01-06T10:49:14;6.27;;;1.50;;
21878;SDS011;27908;42.708;23.278;2023-01-06T10:51:50;4.85;;;1.30;;
21878;SDS011;27908;42.708;23.278;2023-01-06T10:54:18;4.53;;;1.38;;
21878;SDS011;27908;42.708;23.278;2023-01-06T10:56:50;6.55;;;1.70;;
21878;SDS011;27908;42.708;23.278;2023-01-06T10:59:20;5.95;;;1.67;;
21878;SDS011;27908;42.708;23.278;2023-01-06T11:01:49;6.93;;;2.20;;
21878;SDS011;27908;42.708;23.278;2023-01-06T11:04:16;6.10;;;2.00;;
21878;SDS011;27908;42.708;23.278;2023-01-06T11:07:01;5.65;;;1.60;;
21878;SDS011;27908;42.708;23.278;2023-01-06T11:09:31;5.27;;;1.80;;
21878;SDS011;27908;42.708;23.278;2023-01-06T11:12:07;4.70;;;1.58;;
21878;SDS011;27908;42.708;23.278;2023-01-06T11:14:37;6.38;;;1.85;;
21878;SDS011;27908;42.708;23.278;2023-01-06T11:17:04;5.30;;;1.67;;
21878;SDS011;27908;42.708;23.278;2023-01-06T11:19:40;5.15;;;1.65;;
21878;SDS011;27908;42.708;23.278;2023-01-06T11:24:54;6.13;;;1.80;;
21878;SDS011;27908;42.708;23.278;2023-01-06T11:27:20;5.77;;;2.07;;
21878;SDS011;27908;42.708;23.278;2023-01-06T11:29:45;6.10;;;1.92;;
21878;SDS011;27908;42.708;23.278;2023-01-06T11:34:43;5.57;;;2.00;;
21878;SDS011;27908;42.708;23.278;2023-01-06T11:37:29;5.53;;;1.80;;
21878;SDS011;27908;42.708;23.278;2023-01-06T11:40:03;8.63;;;1.95;;
21878;SDS011;27908;42.708;23.278;2023-01-06T11:42:41;4.65;;;1.58;;
21878;SDS011;27908;42.708;23.278;2023-01-06T11:45:26;9.83;;;2.20;;
21878;SDS011;27908;42.708;23.278;2023-01-06T11:47:58;5.60;;;1.67;;
21878;SDS011;27908;42.708;23.278;2023-01-06T11:50:25;5.00;;;1.80;;
21878;SDS011;27908;42.708;23.278;2023-01-06T11:52:57;5.00;;;1.85;;
21878;SDS011;27908;42.708;23.278;2023-01-06T11:55:27;5.87;;;1.80;;
21878;SDS011;27908;42.708;23.278;2023-01-06T11:58:00;6.18;;;2.08;;
21878;SDS011;27908;42.708;23.278;2023-01-06T12:00:40;5.30;;;2.03;;
21878;SDS011;27908;42.708;23.278;2023-01-06T12:05:57;5.53;;;1.92;;
21878;SDS011;27908;42.708;23.278;2023-01-06T12:08:35;6.00;;;2.00;;
21878;SDS011;27908;42.708;23.278;2023-01-06T12:11:18;11.40;;;2.17;;
21878;SDS011;27908;42.708;23.278;2023-01-06T12:13:51;6.10;;;1.80;;
21878;SDS011;27908;42.708;23.278;2023-01-06T12:16:19;6.15;;;2.03;;
21878;SDS011;27908;42.708;23.278;2023-01-06T12:18:50;6.50;;;1.67;;
21878;SDS011;27908;42.708;23.278;2023-01-06T12:21:29;6.05;;;1.80;;
21878;SDS011;27908;42.708;23.278;2023-01-06T12:23:58;7.07;;;1.70;;
21878;SDS011;27908;42.708;23.278;2023-01-06T12:26:26;6.97;;;2.05;;
21878;SDS011;27908;42.708;23.278;2023-01-06T12:28:54;7.53;;;2.00;;
21878;SDS011;27908;42.708;23.278;2023-01-06T12:33:53;6.10;;;1.93;;
21878;SDS011;27908;42.708;23.278;2023-01-06T12:39:29;8.70;;;2.22;;
21878;SDS011;27908;42.708;23.278;2023-01-06T12:42:16;7.97;;;1.90;;
21878;SDS011;27908;42.708;23.278;2023-01-06T12:53:13;6.22;;;2.00;;
21878;SDS011;27908;42.708;23.278;2023-01-06T13:04:25;7.45;;;2.05;;
21878;SDS011;27908;42.708;23.278;2023-01-06T13:20:02;5.78;;;1.70;;
21878;SDS011;27908;42.708;23.278;2023-01-06T13:25:25;6.20;;;1.60;;
21878;SDS011;27908;42.708;23.278;2023-01-06T13:28:01;5.60;;;1.67;;
21878;SDS011;27908;42.708;23.278;2023-01-06T13:42:14;17.90;;;6.70;;
21878;SDS011;27908;42.708;23.278;2023-01-06T13:44:42;9.35;;;2.70;;
21878;SDS011;27908;42.708;23.278;2023-01-06T13:47:15;5.78;;;2.05;;
21878;SDS011;27908;42.708;23.278;2023-01-06T13:49:45;7.40;;;2.60;;
21878;SDS011;27908;42.708;23.278;2023-01-06T13:52:16;6.20;;;2.27;;
21878;SDS011;27908;42.708;23.278;2023-01-06T13:59:51;12.13;;;3.55;;
21878;SDS011;27908;42.708;23.278;2023-01-06T14:07:48;7.80;;;2.80;;
21878;SDS011;27908;42.708;23.278;2023-01-06T14:13:05;8.68;;;2.42;;
21878;SDS011;27908;42.708;23.278;2023-01-06T14:15:53;8.45;;;3.05;;
21878;SDS011;27908;42.708;23.278;2023-01-06T14:21:05;10.77;;;2.65;;
21878;SDS011;27908;42.708;23.278;2023-01-06T14:23:57;6.88;;;2.55;;
21878;SDS011;27908;42.708;23.278;2023-01-06T14:34:37;6.88;;;2.25;;
21878;SDS011;27908;42.708;23.278;2023-01-06T14:37:10;8.73;;;2.28;;
21878;SDS011;27908;42.708;23.278;2023-01-06T14:39:39;6.72;;;2.40;;
21878;SDS011;27908;42.708;23.278;2023-01-06T14:42:20;6.75;;;2.30;;
21878;SDS011;27908;42.708;23.278;2023-01-06T14:44:59;8.90;;;2.40;;
21878;SDS011;27908;42.708;23.278;2023-01-06T14:47:37;7.32;;;2.70;;
21878;SDS011;27908;42.708;23.278;2023-01-06T14:50:13;7.63;;;2.85;;
21878;SDS011;27908;42.708;23.278;2023-01-06T14:55:46;8.07;;;2.92;;
21878;SDS011;27908;42.708;23.278;2023-01-06T14:58:32;10.80;;;2.70;;
21878;SDS011;27908;42.708;23.278;2023-01-06T15:01:03;9.10;;;2.35;;
21878;SDS011;27908;42.708;23.278;2023-01-06T15:03:30;6.93;;;2.50;;
21878;SDS011;27908;42.708;23.278;2023-01-06T15:08:44;9.95;;;2.47;;
21878;SDS011;27908;42.708;23.278;2023-01-06T15:11:23;8.33;;;2.97;;
21878;SDS011;27908;42.708;23.278;2023-01-06T15:13:53;7.30;;;2.85;;
21878;SDS011;27908;42.708;23.278;2023-01-06T15:19:04;7.30;;;2.53;;
21878;SDS011;27908;42.708;23.278;2023-01-06T15:21:35;6.95;;;2.80;;
21878;SDS011;27908;42.708;23.278;2023-01-06T15:24:03;8.98;;;2.75;;
21878;SDS011;27908;42.708;23.278;2023-01-06T15:26:28;9.90;;;2.80;;
21878;SDS011;27908;42.708;23.278;2023-01-06T15:29:02;7.95;;;2.67;;
21878;SDS011;27908;42.708;23.278;2023-01-06T15:31:33;8.90;;;2.92;;
21878;SDS011;27908;42.708;23.278;2023-01-06T15:34:06;7.15;;;2.67;;
21878;SDS011;27908;42.708;23.278;2023-01-06T15:36:33;7.07;;;2.60;;
21878;SDS011;27908;42.708;23.278;2023-01-06T15:39:02;7.77;;;3.00;;
21878;SDS011;27908;42.708;23.278;2023-01-06T15:41:29;7.65;;;2.70;;
21878;SDS011;27908;42.708;23.278;2023-01-06T15:43:57;9.90;;;3.13;;
21878;SDS011;27908;42.708;23.278;2023-01-06T15:47:03;11.80;;;3.10;;
21878;SDS011;27908;42.708;23.278;2023-01-06T15:49:40;11.48;;;3.53;;
21878;SDS011;27908;42.708;23.278;2023-01-06T15:52:16;9.63;;;3.57;;
21878;SDS011;27908;42.708;23.278;2023-01-06T15:54:50;11.52;;;4.85;;
21878;SDS011;27908;42.708;23.278;2023-01-06T15:57:18;11.65;;;4.85;;
21878;SDS011;27908;42.708;23.278;2023-01-06T15:59:51;10.43;;;3.80;;
21878;SDS011;27908;42.708;23.278;2023-01-06T16:02:18;9.13;;;3.20;;
21878;SDS011;27908;42.708;23.278;2023-01-06T16:04:49;8.53;;;3.50;;
21878;SDS011;27908;42.708;23.278;2023-01-06T16:10:27;10.82;;;3.80;;
21878;SDS011;27908;42.708;23.278;2023-01-06T16:15:47;10.32;;;3.90;;
21878;SDS011;27908;42.708;23.278;2023-01-06T16:18:15;8.53;;;3.70;;
21878;SDS011;27908;42.708;23.278;2023-01-06T16:20:48;14.15;;;4.15;;
21878;SDS011;27908;42.708;23.278;2023-01-06T16:23:16;13.33;;;4.60;;
21878;SDS011;27908;42.708;23.278;2023-01-06T16:25:53;14.82;;;5.20;;
21878;SDS011;27908;42.708;23.278;2023-01-06T16:28:27;12.60;;;4.70;;
21878;SDS011;27908;42.708;23.278;2023-01-06T16:31:12;11.23;;;4.80;;
21878;SDS011;27908;42.708;23.278;2023-01-06T16:33:40;11.60;;;3.83;;
21878;SDS011;27908;42.708;23.278;2023-01-06T16:36:12;9.95;;;3.30;;
21878;SDS011;27908;42.708;23.278;2023-01-06T16:38:41;11.60;;;3.40;;
21878;SDS011;27908;42.708;23.278;2023-01-06T16:41:11;11.20;;;3.30;;
21878;SDS011;27908;42.708;23.278;2023-01-06T16:43:39;11.82;;;4.50;;
21878;SDS011;27908;42.708;23.278;2023-01-06T16:46:21;12.47;;;4.27;;
21878;SDS011;27908;42.708;23.278;2023-01-06T16:48:51;10.20;;;3.38;;
21878;SDS011;27908;42.708;23.278;2023-01-06T16:51:19;11.85;;;3.92;;
21878;SDS011;27908;42.708;23.278;2023-01-06T16:53:44;12.53;;;4.47;;
21878;SDS011;27908;42.708;23.278;2023-01-06T16:56:18;10.27;;;3.53;;
21878;SDS011;27908;42.708;23.278;2023-01-06T16:58:46;10.07;;;4.00;;
21878;SDS011;27908;42.708;23.278;2023-01-06T17:01:13;12.90;;;4.40;;
21878;SDS011;27908;42.708;23.278;2023-01-06T17:03:40;10.35;;;4.10;;
21878;SDS011;27908;42.708;23.278;2023-01-06T17:06:24;9.65;;;3.88;;
21878;SDS011;27908;42.708;23.278;2023-01-06T17:08:55;9.52;;;3.25;;
21878;SDS011;27908;42.708;23.278;2023-01-06T17:11:25;9.67;;;3.23;;
21878;SDS011;27908;42.708;23.278;2023-01-06T17:16:20;15.57;;;5.30;;
21878;SDS011;27908;42.708;23.278;2023-01-06T17:21:17;18.67;;;6.47;;
21878;SDS011;27908;42.708;23.278;2023-01-06T17:23:49;16.33;;;5.13;;
21878;SDS011;27908;42.708;23.278;2023-01-06T17:26:18;14.18;;;5.15;;
21878;SDS011;27908;42.708;23.278;2023-01-06T17:28:45;16.53;;;4.87;;